Pagrindinis puslapis
METAR-TAF:

METAR-TAF

Oro uostai :

Grand Junction, Koloradas, Jungtinės Amerikos Valstijos

platuma: 39-08-02N, ilguma: 108-32-19W, Aukštis: 1481 m

Dabartinis oras

Ataskaita buvo paskelbta 41 minutes, ne 22:53 UTC
Vėjas 8 kt iš Šiaurės Vakarų
Temperatūra -1°C
Drėgmė 93%
Slėgis 1020 hPa
Matomumas: 16.1 km
Apsiniaukę ne aukštis 600 ft

METAR: KGJT 272253Z 32008KT 10SM OVC006 M01/M02 A3013 RMK AO2 SLP221 T10061022

Laikas: 16:34 (23:34 UTC)

Prognozė

Ataskaita buvo paskelbta 1 valandą ir 46 minutes, ne 21:48 UTC
Prognozė galioja nuo 27 metu 22 UTC su 28 metu 18 UTC
Vėjas 8 kt iš Šiaurės Vakarų
Matomumas: 10 km
Apsiniaukę ne aukštis 800 ft
Nuo 28 metu 0200 UTC
Vėjas 4 kt iš Šiaurės
Matomumas: 10 km
Apsiniaukę ne aukštis 1000 ft
Nuo 28 metu 0600 UTC
Vėjas 5 kt iš Šiaurės Rytų
Matomumas: 8.0 km
Apsiniaukę ne aukštis 800 ft
rūkana

TAF: KGJT 272148Z 2722/2818 32008KT P6SM OVC008 FM280200 01004KT P6SM OVC010 FM280600 05005KT 5SM BR OVC008

Orai ataskaitas ir orų prognozės (METAR, TAF).

turimą stotys yra geltonos ir raudonos taškus žemėlapyje.

Perkelti pele per norėdami pamatyti stoties vardą.

Tada spustelėkite, norėdami matyti oro stebėjimo ir prognozės.

Norėdami pakeisti žemėlapį: spustelėkite ant žalios mygtukų su juodo kryžiaus žemyn,; žalią mygtuką su brūkšneliu, jei norite nutolinti; arba žalių rodyklių gretimoms žemėlapius.


METAR-TAF: